Time;durP1;ratioP1;P1;durP2;ratioP2;P2;SDS_P1;SDS_P2;PMS_P1;PMS_P2;Temp;Humidity;BMP_temperature;BMP_pressure;BME280_temperature;BME280_humidity;BME280_pressure;Samples;Min_cycle;Max_cycle;Signal;HPM_P1;HPM_P2
2023/02/04 00:01:37;;;;;;;18.30;8.00;;;;;;;-4.84;77.47;98360.10;105542;1254;75463;-25
2023/02/04 00:04:06;;;;;;;15.90;6.80;;;;;;;-5.09;77.67;98363.36;105595;1257;75807;-25
2023/02/04 00:06:36;;;;;;;11.90;6.40;;;;;;;-5.31;77.82;98363.79;105550;1257;74073;-26
2023/02/04 00:15:24;;;;;;;8.10;4.20;;;;;;;-5.77;79.86;98362.51;102691;1292;600272;-26
2023/02/04 00:17:53;;;;;;;5.10;2.20;;;;;;;-5.87;80.31;98356.52;105241;1266;61910;-25
2023/02/04 00:20:22;;;;;;;3.00;2.00;;;;;;;-5.34;80.45;98355.23;105255;1263;61833;-25
2023/02/04 00:22:50;;;;;;;5.70;1.60;;;;;;;-4.39;78.91;98353.48;105298;1265;73782;-25
2023/02/04 00:25:19;;;;;;;3.80;2.50;;;;;;;-4.12;76.59;98351.45;105232;1263;75115;-26
2023/02/04 00:27:47;;;;;;;4.70;2.90;;;;;;;-4.23;75.77;98348.23;105036;1263;73913;-26
2023/02/04 00:30:16;;;;;;;4.40;2.80;;;;;;;-4.50;75.62;98345.20;103947;1265;61195;-25
2023/02/04 00:32:45;;;;;;;4.30;2.40;;;;;;;-4.75;76.20;98345.10;105231;1262;61899;-25
2023/02/04 00:35:13;;;;;;;5.00;2.30;;;;;;;-4.99;76.51;98350.89;105128;1264;73838;-25
2023/02/04 00:37:43;;;;;;;6.10;3.40;;;;;;;-5.26;76.93;98351.83;105375;1262;75041;-25
2023/02/04 00:40:12;;;;;;;7.50;3.40;;;;;;;-5.48;77.67;98356.67;105587;1259;74170;-25
2023/02/04 00:42:40;;;;;;;16.20;9.80;;;;;;;-5.64;77.88;98360.64;105704;1259;61859;-25
2023/02/04 00:45:09;;;;;;;20.30;10.60;;;;;;;-5.79;78.71;98360.36;105651;1260;61762;-25
2023/02/04 00:47:38;;;;;;;7.00;4.30;;;;;;;-5.87;78.98;98360.73;105529;1264;73630;-25
2023/02/04 00:50:07;;;;;;;12.00;6.20;;;;;;;-5.35;79.02;98356.64;105672;1260;75834;-26
2023/02/04 00:52:37;;;;;;;16.50;8.10;;;;;;;-4.39;77.42;98351.12;105694;1254;74951;-26
2023/02/04 00:55:06;;;;;;;14.60;7.30;;;;;;;-4.13;74.68;98346.73;105617;1260;61901;-26
2023/02/04 00:57:35;;;;;;;12.80;4.70;;;;;;;-4.21;74.06;98344.77;105609;1259;61094;-26
2023/02/04 01:00:05;;;;;;;8.40;3.40;;;;;;;-4.41;74.08;98343.04;105676;1259;74219;-26
2023/02/04 01:02:34;;;;;;;5.80;3.20;;;;;;;-4.66;74.43;98343.48;105635;1260;75796;-27
2023/02/04 01:05:03;;;;;;;7.80;2.90;;;;;;;-4.90;75.02;98344.17;105702;1257;73157;-25
2023/02/04 01:07:32;;;;;;;5.80;2.60;;;;;;;-5.10;75.40;98345.44;105646;1259;61650;-25
2023/02/04 01:10:02;;;;;;;5.30;2.50;;;;;;;-5.29;75.73;98345.48;105635;1255;61026;-25
2023/02/04 01:12:34;;;;;;;3.10;1.90;;;;;;;-5.47;75.97;98345.81;105325;1263;74603;-25
2023/02/04 01:15:04;;;;;;;5.50;2.70;;;;;;;-5.66;76.87;98345.13;105644;1257;75840;-25
2023/02/04 01:17:33;;;;;;;6.30;2.30;;;;;;;-5.77;77.39;98348.80;105513;1260;74149;-25
2023/02/04 01:20:02;;;;;;;6.20;2.40;;;;;;;-5.29;77.30;98346.49;105647;1257;63333;-25
2023/02/04 01:22:31;;;;;;;6.10;3.00;;;;;;;-4.43;76.09;98348.53;105571;1258;61592;-26
2023/02/04 01:25:00;;;;;;;7.00;3.30;;;;;;;-4.19;74.29;98351.48;105279;1263;73599;-25
2023/02/04 01:27:41;;;;;;;7.20;3.30;;;;;;;-4.36;73.18;98350.87;105618;1261;75624;-26
2023/02/04 01:30:10;;;;;;;10.10;2.90;;;;;;;-4.60;73.59;98354.82;105595;1261;74220;-25
2023/02/04 01:32:39;;;;;;;6.00;3.10;;;;;;;-4.85;74.06;98355.05;105417;1261;61066;-25
2023/02/04 01:35:08;;;;;;;4.40;2.70;;;;;;;-5.11;74.40;98360.54;105640;1259;61669;-25
2023/02/04 01:37:36;;;;;;;5.80;3.40;;;;;;;-5.33;74.69;98362.16;105493;1259;74313;-26
2023/02/04 01:40:06;;;;;;;5.50;2.40;;;;;;;-5.53;75.32;98363.72;105384;1261;75838;-26
2023/02/04 01:42:35;;;;;;;9.00;3.40;;;;;;;-5.70;75.73;98367.71;105304;1261;74200;-25
2023/02/04 01:45:05;;;;;;;3.90;2.30;;;;;;;-5.85;76.44;98368.78;105255;1261;61073;-25
2023/02/04 01:47:34;;;;;;;10.00;3.30;;;;;;;-5.97;77.18;98367.41;105180;1264;61578;-25
2023/02/04 01:50:03;;;;;;;2.60;1.60;;;;;;;-6.02;77.03;98367.55;105278;1261;74572;-25
2023/02/04 01:52:34;;;;;;;4.40;2.10;;;;;;;-5.45;77.18;98367.39;105342;1264;75194;-25
2023/02/04 01:55:05;;;;;;;9.90;3.50;;;;;;;-4.62;75.09;98366.05;105323;1260;74152;-26
2023/02/04 01:57:35;;;;;;;8.70;3.90;;;;;;;-4.32;73.91;98364.11;105214;1260;61057;-25
2023/02/04 02:00:09;;;;;;;6.80;3.40;;;;;;;-4.41;73.37;98362.70;105321;1256;61981;-26
2023/02/04 02:02:49;;;;;;;11.10;3.80;;;;;;;-4.62;73.49;98360.27;105649;1259;74504;-25
2023/02/04 02:05:22;;;;;;;8.30;3.50;;;;;;;-4.81;73.89;98357.48;105753;1256;74828;-26
2023/02/04 02:07:53;;;;;;;6.00;2.80;;;;;;;-5.03;73.80;98362.52;105675;1256;74273;-25
2023/02/04 02:10:21;;;;;;;5.10;3.00;;;;;;;-5.23;74.22;98357.83;105568;1256;61915;-25
2023/02/04 02:12:49;;;;;;;4.20;2.00;;;;;;;-5.37;74.90;98358.73;105807;1253;61107;-25
2023/02/04 02:15:18;;;;;;;4.80;2.50;;;;;;;-5.48;75.04;98356.82;105708;1255;74234;-25
2023/02/04 02:17:47;;;;;;;5.10;2.20;;;;;;;-5.58;75.44;98359.29;105678;1255;75722;-25
2023/02/04 02:20:17;;;;;;;3.60;1.90;;;;;;;-5.66;75.65;98362.38;105628;1254;73912;-25
2023/02/04 02:23:03;;;;;;;2.80;1.70;;;;;;;-5.71;76.03;98369.11;105537;1260;61713;-25
2023/02/04 02:25:32;;;;;;;6.40;2.80;;;;;;;-5.02;76.04;98374.00;105678;1257;62203;-25
2023/02/04 02:28:00;;;;;;;3.00;2.20;;;;;;;-4.14;74.06;98377.77;105842;1254;74604;-26
2023/02/04 02:30:29;;;;;;;1.40;1.20;;;;;;;-3.88;72.39;98380.35;105817;1259;75847;-25
2023/02/04 02:32:59;;;;;;;8.50;2.70;;;;;;;-4.01;71.12;98379.75;105639;1254;74195;-25
2023/02/04 02:35:28;;;;;;;3.70;1.70;;;;;;;-4.22;71.34;98379.90;105724;1254;60987;-25
2023/02/04 02:37:57;;;;;;;4.80;2.50;;;;;;;-4.46;71.45;98381.66;105752;1256;61815;-25
2023/02/04 02:40:26;;;;;;;5.10;2.50;;;;;;;-4.71;71.86;98381.89;105872;1258;74561;-25
2023/02/04 02:42:55;;;;;;;4.10;2.40;;;;;;;-4.90;72.41;98384.33;105739;1260;75848;-25
2023/02/04 02:45:28;;;;;;;6.00;3.10;;;;;;;-5.06;73.03;98386.30;105658;1254;74167;-25
2023/02/04 02:47:58;;;;;;;;;;;;;;;-5.22;73.45;98383.36;105584;1261;61931;-25
2023/02/04 02:50:28;;;;;;;2.00;1.50;;;;;;;-5.36;73.63;98386.45;105889;1258;61424;-25
2023/02/04 02:52:59;;;;;;;4.30;1.80;;;;;;;-4.96;74.11;98388.21;105656;1260;73575;-25
2023/02/04 02:55:28;;;;;;;2.70;1.90;;;;;;;-4.08;72.06;98387.26;105803;1254;74925;-25
2023/02/04 02:57:56;;;;;;;3.50;2.20;;;;;;;-3.75;70.15;98388.91;105839;1257;74034;-26
2023/02/04 03:00:27;;;;;;;4.10;2.50;;;;;;;-3.93;69.11;98389.48;105924;1257;61052;-26
2023/02/04 03:03:10;;;;;;;6.50;3.10;;;;;;;-4.12;69.71;98394.51;105710;1258;61904;-25
2023/02/04 03:05:41;;;;;;;5.80;2.80;;;;;;;-4.38;70.24;98392.25;105641;1257;74388;-25
2023/02/04 03:08:11;;;;;;;8.30;2.20;;;;;;;-4.60;71.01;98393.27;105649;1255;75635;-25
2023/02/04 03:10:40;;;;;;;7.00;3.60;;;;;;;-4.80;71.66;98394.71;105723;1254;74161;-26
2023/02/04 03:13:10;;;;;;;4.60;2.60;;;;;;;-5.07;72.37;98391.75;105503;1254;61587;-26
2023/02/04 03:15:38;;;;;;;8.90;4.10;;;;;;;-5.21;73.07;98394.17;105480;1269;61872;-25
2023/02/04 03:18:07;;;;;;;7.30;3.70;;;;;;;-5.35;73.92;98395.06;105633;1252;74583;-26
2023/02/04 03:20:36;;;;;;;6.00;3.10;;;;;;;-5.46;74.41;98398.39;105680;1254;74872;-25
2023/02/04 03:23:05;;;;;;;4.20;2.00;;;;;;;-5.40;74.64;98397.55;105712;1253;74224;-25
2023/02/04 03:25:33;;;;;;;6.20;3.10;;;;;;;-4.57;74.21;98398.07;105822;1257;60988;-25
2023/02/04 03:28:02;;;;;;;8.50;3.30;;;;;;;-3.86;71.47;98396.03;105588;1254;62057;-26
2023/02/04 03:30:31;;;;;;;8.70;2.90;;;;;;;-3.67;70.54;98393.73;105621;1254;74435;-26
2023/02/04 03:33:01;;;;;;;12.00;5.00;;;;;;;-3.82;69.85;98396.42;105793;1257;75641;-26
2023/02/04 03:35:30;;;;;;;14.40;5.10;;;;;;;-4.04;70.19;98396.28;105644;1254;73777;-25
2023/02/04 03:37:58;;;;;;;15.60;5.50;;;;;;;-4.27;70.76;98394.48;105666;1256;61182;-26
2023/02/04 03:40:28;;;;;;;9.60;4.60;;;;;;;-4.49;71.39;98394.64;105676;1256;61977;-25
2023/02/04 03:42:58;;;;;;;8.00;4.20;;;;;;;-4.70;71.65;98393.23;105676;1258;74676;-26
2023/02/04 03:45:26;;;;;;;11.50;5.40;;;;;;;-4.87;72.20;98394.40;105901;1255;75628;-25
2023/02/04 03:48:03;;;;;;;9.30;4.70;;;;;;;-5.04;72.52;98398.27;105893;1254;74171;-25
2023/02/04 03:50:31;;;;;;;14.90;5.30;;;;;;;-5.18;72.85;98401.55;105907;1255;61944;-25
2023/02/04 03:53:00;;;;;;;15.00;5.70;;;;;;;-5.29;73.36;98408.08;105908;1253;61893;-25
2023/02/04 03:55:31;;;;;;;12.10;6.50;;;;;;;-5.40;73.78;98413.46;105882;1257;74279;-27
2023/02/04 03:57:59;;;;;;;8.20;4.10;;;;;;;-5.51;74.12;98413.40;105996;1255;75922;-26
2023/02/04 04:00:28;;;;;;;7.90;3.50;;;;;;;-5.27;74.69;98414.30;105970;1254;73566;-25
2023/02/04 04:02:58;;;;;;;13.40;5.80;;;;;;;-4.25;72.98;98417.27;105714;1259;61245;-26
2023/02/04 04:05:27;;;;;;;10.90;6.30;;;;;;;-3.70;70.41;98417.08;105602;1255;61886;-25
2023/02/04 04:07:55;;;;;;;13.20;7.10;;;;;;;-3.69;69.39;98421.79;105902;1257;74534;-26
2023/02/04 04:10:24;;;;;;;8.50;3.90;;;;;;;-3.85;69.54;98419.74;105952;1254;75910;-25
2023/02/04 04:12:54;;;;;;;9.40;4.60;;;;;;;-4.10;69.55;98422.42;105710;1255;72546;-26
2023/02/04 04:15:23;;;;;;;10.70;4.80;;;;;;;-4.30;70.30;98424.39;105611;1253;61061;-25
2023/02/04 04:17:52;;;;;;;13.20;7.10;;;;;;;-4.49;70.92;98425.47;105639;1257;61405;-25
2023/02/04 04:20:24;;;;;;;14.70;7.30;;;;;;;-4.71;71.42;98426.80;105696;1254;74419;-26
2023/02/04 04:22:52;;;;;;;11.90;6.30;;;;;;;-4.90;72.19;98431.06;105625;1258;75795;-26
2023/02/04 04:25:21;;;;;;;10.80;6.20;;;;;;;-5.00;72.49;98430.31;105468;1254;73035;-25
2023/02/04 04:27:49;;;;;;;15.10;6.80;;;;;;;-5.13;72.92;98434.23;105561;1253;61884;-25
2023/02/04 04:30:18;;;;;;;14.70;6.70;;;;;;;-5.26;73.24;98435.92;105622;1258;61313;-25
2023/02/04 04:32:47;;;;;;;10.40;5.80;;;;;;;-5.31;73.21;98439.47;105574;1253;75374;-25
2023/02/04 04:35:15;;;;;;;11.30;5.90;;;;;;;-5.42;73.88;98443.29;105647;1258;75666;-26
2023/02/04 04:37:44;;;;;;;5.60;3.30;;;;;;;-5.43;74.13;98446.55;105608;1258;74016;-25
2023/02/04 04:47:49;;;;;;;21.30;10.30;;;;;;;-3.86;68.95;98445.75;102681;1292;600198;-26
2023/02/04 04:50:18;;;;;;;13.00;5.70;;;;;;;-4.18;69.62;98448.60;105138;1264;61440;-26
2023/02/04 04:52:46;;;;;;;19.40;7.90;;;;;;;-4.37;70.53;98446.96;105130;1267;61543;-25
2023/02/04 04:55:16;;;;;;;27.60;13.00;;;;;;;-4.70;71.43;98449.13;105148;1266;73758;-25
2023/02/04 04:57:44;;;;;;;23.50;11.30;;;;;;;-4.97;72.51;98447.48;104869;1266;75819;-26
2023/02/04 05:00:17;;;;;;;32.20;15.00;;;;;;;-5.17;73.30;98449.40;105102;1267;73812;-26
2023/02/04 05:02:46;;;;;;;;;;;;;;;-5.30;74.34;98451.61;103563;1270;61255;-26
2023/02/04 05:05:14;;;;;;;33.90;15.40;;;;;;;-5.43;74.67;98457.88;105230;1264;61446;-25
2023/02/04 05:07:43;;;;;;;30.10;14.70;;;;;;;-5.44;75.22;98461.95;105624;1257;73440;-26
2023/02/04 05:10:11;;;;;;;29.00;13.70;;;;;;;-4.91;73.46;98470.02;105657;1258;76379;-26
2023/02/04 05:12:40;;;;;;;13.30;6.70;;;;;;;-4.26;71.60;98466.48;105653;1257;74348;-26
2023/02/04 05:15:09;;;;;;;20.10;10.20;;;;;;;-4.35;70.95;98471.84;105536;1256;61062;-26
2023/02/04 05:17:37;;;;;;;16.40;9.00;;;;;;;-4.48;71.73;98476.30;105621;1259;61943;-26
2023/02/04 05:20:07;;;;;;;7.60;5.30;;;;;;;-4.83;72.84;98480.15;105595;1257;74403;-25
2023/02/04 05:22:35;;;;;;;9.50;4.20;;;;;;;-4.87;73.64;98484.33;105577;1256;75790;-25
2023/02/04 05:25:05;;;;;;;9.40;5.60;;;;;;;-5.00;73.79;98488.04;105555;1262;74187;-26
2023/02/04 05:27:35;;;;;;;8.40;4.70;;;;;;;-4.94;73.95;98489.95;105550;1262;61123;-26
2023/02/04 05:30:03;;;;;;;10.40;4.30;;;;;;;-5.15;74.04;98491.31;105628;1259;61705;-26
2023/02/04 05:32:32;;;;;;;11.60;5.50;;;;;;;-5.19;74.71;98499.90;105589;1262;73988;-25
2023/02/04 05:35:00;;;;;;;5.40;3.60;;;;;;;-5.14;74.90;98502.98;105640;1259;75729;-25
2023/02/04 05:37:29;;;;;;;8.40;3.80;;;;;;;-4.59;72.99;98507.91;105702;1259;74232;-25
2023/02/04 05:39:57;;;;;;;6.10;3.60;;;;;;;-4.15;71.38;98515.46;105672;1256;60985;-26
2023/02/04 05:42:26;;;;;;;6.80;4.20;;;;;;;-4.12;70.72;98521.33;105652;1256;61860;-26
2023/02/04 05:44:55;;;;;;;5.90;3.60;;;;;;;-4.37;71.55;98530.02;105641;1256;74543;-25
2023/02/04 05:47:24;;;;;;;6.70;4.60;;;;;;;-4.46;71.63;98532.63;105591;1262;75959;-25
2023/02/04 05:49:52;;;;;;;7.90;4.40;;;;;;;-4.67;72.82;98535.27;105564;1256;73872;-25
2023/02/04 05:52:21;;;;;;;5.40;3.50;;;;;;;-4.81;73.51;98536.98;105583;1257;61139;-25
2023/02/04 05:54:49;;;;;;;9.10;4.50;;;;;;;-4.76;73.68;98543.13;105561;1260;61673;-26
2023/02/04 05:57:18;;;;;;;11.30;5.70;;;;;;;-4.88;73.90;98550.38;105152;1258;74244;-25
2023/02/04 05:59:46;;;;;;;6.70;4.60;;;;;;;-4.90;74.35;98552.83;105263;1260;74071;-25
2023/02/04 06:02:15;;;;;;;3.80;2.00;;;;;;;-5.05;74.48;98558.61;105434;1258;73886;-25
2023/02/04 06:04:44;;;;;;;4.40;2.60;;;;;;;-4.79;74.37;98561.32;105432;1261;63349;-26
2023/02/04 06:07:12;;;;;;;5.40;3.60;;;;;;;-4.04;71.95;98564.98;105541;1256;61669;-26
2023/02/04 06:09:41;;;;;;;7.10;4.00;;;;;;;-3.61;70.23;98565.24;105396;1259;73526;-26
2023/02/04 06:12:10;;;;;;;7.30;3.50;;;;;;;-3.72;69.87;98567.27;105518;1256;75838;-26
2023/02/04 06:14:39;;;;;;;6.80;3.50;;;;;;;-4.12;70.63;98575.42;105542;1257;73181;-26
2023/02/04 06:17:10;;;;;;;5.00;3.70;;;;;;;-4.19;71.62;98575.95;105446;1257;61168;-26
2023/02/04 06:19:39;;;;;;;19.40;9.50;;;;;;;-4.33;71.51;98576.33;105342;1260;62159;-25
2023/02/04 06:22:07;;;;;;;12.30;6.30;;;;;;;-4.59;72.51;98584.52;105280;1258;74406;-25
2023/02/04 06:24:37;;;;;;;28.80;11.50;;;;;;;-4.76;73.08;98588.36;105582;1257;75530;-25
2023/02/04 06:27:06;;;;;;;14.80;6.30;;;;;;;-4.81;73.95;98587.30;105549;1257;74199;-25
2023/02/04 06:29:34;;;;;;;14.10;7.70;;;;;;;-4.75;74.36;98593.06;105222;1262;61205;-25
2023/02/04 06:32:04;;;;;;;7.00;4.40;;;;;;;-4.81;74.56;98592.04;105318;1260;61822;-25
2023/02/04 06:34:32;;;;;;;15.00;7.30;;;;;;;-4.28;72.94;98593.33;105166;1257;74603;-25
2023/02/04 06:37:01;;;;;;;14.90;9.00;;;;;;;-3.83;70.88;98596.29;105416;1257;75729;-25
2023/02/04 06:39:29;;;;;;;24.20;12.20;;;;;;;-3.67;70.37;98597.64;105549;1257;74021;-25
2023/02/04 06:41:58;;;;;;;13.90;7.40;;;;;;;-3.80;69.88;98603.64;105508;1258;61157;-25
2023/02/04 06:44:26;;;;;;;57.00;38.50;;;;;;;-4.02;70.92;98613.45;105581;1257;61811;-25
2023/02/04 06:46:55;;;;;;;14.30;9.50;;;;;;;-4.21;71.55;98614.65;105563;1260;74664;-25
2023/02/04 06:49:24;;;;;;;17.90;11.20;;;;;;;-4.29;72.38;98621.31;105535;1256;75557;-25
2023/02/04 06:51:54;;;;;;;13.80;6.50;;;;;;;-4.41;72.64;98619.95;105631;1257;74004;-25
2023/02/04 06:54:23;;;;;;;14.60;7.90;;;;;;;-4.63;73.10;98621.57;105489;1257;61623;-25
2023/02/04 06:56:51;;;;;;;75.50;40.00;;;;;;;-4.57;73.56;98627.16;105548;1256;61081;-25
2023/02/04 06:59:20;;;;;;;34.70;21.80;;;;;;;-4.58;73.79;98627.00;105628;1256;74748;-25
2023/02/04 07:01:48;;;;;;;88.90;51.70;;;;;;;-4.63;73.99;98632.57;105703;1256;75789;-25
2023/02/04 07:04:17;;;;;;;82.40;43.70;;;;;;;-4.26;72.85;98636.17;105570;1257;74071;-25
2023/02/04 07:06:45;;;;;;;38.20;21.90;;;;;;;-3.70;71.34;98634.56;105558;1256;61056;-25
2023/02/04 07:09:14;;;;;;;18.70;10.30;;;;;;;-3.96;70.38;98634.32;105570;1257;61662;-25
2023/02/04 07:11:42;;;;;;;23.80;12.00;;;;;;;-3.93;70.17;98634.05;105685;1259;74579;-25
2023/02/04 07:14:12;;;;;;;39.70;21.00;;;;;;;-4.01;70.40;98641.39;105580;1257;75927;-25
2023/02/04 07:16:41;;;;;;;30.90;16.00;;;;;;;-3.90;69.95;98644.65;105602;1257;74422;-25
2023/02/04 07:19:09;;;;;;;34.30;21.00;;;;;;;-3.94;70.34;98646.96;105654;1256;61055;-24
2023/02/04 07:21:38;;;;;;;46.00;27.90;;;;;;;-4.12;70.11;98650.03;105556;1260;61614;-25
2023/02/04 07:24:07;;;;;;;28.50;15.20;;;;;;;-4.18;70.82;98654.25;105446;1257;74402;-24
2023/02/04 07:26:36;;;;;;;28.40;16.80;;;;;;;-4.23;71.15;98654.89;105483;1257;75984;-24
2023/02/04 07:29:05;;;;;;;25.40;13.90;;;;;;;-4.07;71.27;98658.35;105262;1260;74396;-24
2023/02/04 07:31:43;;;;;;;14.90;7.90;;;;;;;-4.01;71.18;98662.26;105546;1259;61912;-24
2023/02/04 07:34:13;;;;;;;13.60;5.80;;;;;;;-4.18;70.82;98661.04;105460;1256;61461;-24
2023/02/04 07:36:42;;;;;;;14.20;7.10;;;;;;;-4.08;71.24;98668.89;105464;1260;74572;-24
2023/02/04 07:39:10;;;;;;;33.20;17.60;;;;;;;-4.02;71.24;98672.80;105602;1257;75809;-24
2023/02/04 07:41:39;;;;;;;25.90;12.00;;;;;;;-3.62;70.37;98676.91;105539;1256;73967;-25
2023/02/04 07:44:08;;;;;;;32.50;15.50;;;;;;;-2.95;68.26;98675.59;105512;1255;61051;-24
2023/02/04 07:46:37;;;;;;;21.00;11.20;;;;;;;-2.79;67.67;98677.23;105495;1257;61836;-24
2023/02/04 07:49:06;;;;;;;42.00;22.50;;;;;;;-2.97;68.37;98686.65;105515;1256;74563;-25
2023/02/04 07:51:36;;;;;;;30.90;16.50;;;;;;;-2.91;68.65;98685.13;105590;1256;75223;-25
2023/02/04 07:54:05;;;;;;;41.70;18.60;;;;;;;-2.86;68.72;98689.03;105626;1256;74265;-25
2023/02/04 07:56:35;;;;;;;32.00;13.10;;;;;;;-2.96;68.85;98697.50;105620;1256;61228;-24
2023/02/04 07:59:04;;;;;;;30.20;17.50;;;;;;;-3.37;69.42;98697.05;105603;1256;61597;-24
2023/02/04 08:01:33;;;;;;;18.40;10.50;;;;;;;-3.57;70.16;98700.73;105638;1256;73631;-25
2023/02/04 08:04:02;;;;;;;114.00;65.20;;;;;;;-3.44;70.58;98707.98;105568;1256;75614;-25
2023/02/04 08:06:31;;;;;;;19.60;11.20;;;;;;;-3.51;70.33;98710.20;105608;1256;74081;-25
2023/02/04 08:09:00;;;;;;;32.50;19.70;;;;;;;-3.63;70.59;98709.52;105487;1257;61994;-24
2023/02/04 08:11:29;;;;;;;11.10;8.10;;;;;;;-3.54;70.60;98708.94;105647;1260;61635;-24
2023/02/04 08:13:58;;;;;;;16.90;9.70;;;;;;;-3.50;70.82;98710.50;105594;1260;74582;-25
2023/02/04 08:16:27;;;;;;;19.30;9.80;;;;;;;-3.34;70.91;98716.33;105551;1261;75865;-24
2023/02/04 08:18:56;;;;;;;10.10;4.10;;;;;;;-3.40;69.97;98717.49;105557;1256;73257;-24
2023/02/04 08:21:24;;;;;;;7.50;3.10;;;;;;;-2.94;69.02;98723.79;105562;1256;61146;-24
2023/02/04 08:23:53;;;;;;;15.10;8.20;;;;;;;-2.53;67.24;98724.16;105593;1258;61625;-24
2023/02/04 08:26:21;;;;;;;9.90;4.40;;;;;;;-2.94;67.37;98723.11;105460;1260;74594;-25
2023/02/04 08:28:50;;;;;;;8.60;4.30;;;;;;;-3.04;67.38;98724.42;105337;1260;75881;-25
2023/02/04 08:31:19;;;;;;;5.80;3.70;;;;;;;-3.12;67.35;98726.36;105193;1256;74161;-24
2023/02/04 08:33:48;;;;;;;6.90;3.20;;;;;;;-2.87;67.43;98733.91;105467;1256;61239;-25
2023/02/04 08:36:16;;;;;;;8.00;4.60;;;;;;;-2.75;67.01;98736.45;105193;1260;61949;-25
2023/02/04 08:38:45;;;;;;;11.90;3.40;;;;;;;-2.64;67.38;98734.55;105384;1256;74716;-24
2023/02/04 08:41:14;;;;;;;8.10;4.00;;;;;;;-2.57;67.00;98734.16;105509;1260;75437;-24
2023/02/04 08:43:42;;;;;;;47.90;27.90;;;;;;;-2.66;67.09;98738.54;105542;1257;74115;-24
2023/02/04 08:46:11;;;;;;;8.30;4.70;;;;;;;-2.64;67.26;98742.73;105591;1257;61063;-24
2023/02/04 08:48:39;;;;;;;68.20;48.10;;;;;;;-2.73;67.07;98747.44;105544;1260;61607;-24
2023/02/04 08:51:08;;;;;;;54.20;33.90;;;;;;;-2.95;67.41;98754.38;105463;1256;74364;-24
2023/02/04 08:53:39;;;;;;;20.30;14.00;;;;;;;-3.01;67.44;98757.63;105555;1257;75888;-25
2023/02/04 08:56:09;;;;;;;13.20;6.60;;;;;;;-3.05;67.16;98764.03;105538;1261;74032;-24
2023/02/04 08:58:38;;;;;;;10.80;6.60;;;;;;;-2.92;67.27;98764.46;105616;1256;61698;-24
2023/02/04 09:01:06;;;;;;;12.50;5.20;;;;;;;-2.86;67.47;98769.74;105631;1260;61868;-24
2023/02/04 09:03:38;;;;;;;9.10;3.60;;;;;;;-2.94;66.45;98769.29;105590;1257;75363;-24
2023/02/04 09:06:07;;;;;;;6.40;2.70;;;;;;;-2.94;66.18;98772.20;105188;1260;75648;-25
2023/02/04 09:08:36;;;;;;;7.20;3.80;;;;;;;-2.92;66.90;98771.79;105408;1260;73005;-24
2023/02/04 09:11:04;;;;;;;4.50;2.50;;;;;;;-2.77;66.87;98774.05;105564;1256;61902;-24
2023/02/04 09:13:34;;;;;;;10.20;6.00;;;;;;;-2.95;66.52;98777.98;105614;1261;61752;-24
2023/02/04 09:16:03;;;;;;;7.90;4.40;;;;;;;-2.93;67.33;98780.14;105645;1260;75397;-24
2023/02/04 09:18:31;;;;;;;12.90;7.20;;;;;;;-2.75;67.13;98781.48;105631;1256;75853;-25
2023/02/04 09:21:00;;;;;;;16.00;6.10;;;;;;;-2.86;66.84;98784.54;105572;1256;74030;-24
2023/02/04 09:23:29;;;;;;;11.40;5.10;;;;;;;-2.80;67.19;98789.27;105602;1256;61933;-24
2023/02/04 09:25:57;;;;;;;7.90;3.40;;;;;;;-2.62;66.90;98790.59;105642;1261;61751;-24
2023/02/04 09:28:26;;;;;;;11.10;5.70;;;;;;;-3.06;66.14;98793.45;105360;1257;75251;-24
2023/02/04 09:30:55;;;;;;;12.80;5.80;;;;;;;-2.87;66.85;98795.58;105330;1260;75887;-26
2023/02/04 09:33:23;;;;;;;11.30;4.90;;;;;;;-2.94;66.66;98796.83;105443;1256;73593;-25
2023/02/04 09:35:52;;;;;;;10.40;4.60;;;;;;;-2.93;66.32;98805.10;105256;1256;61886;-24
2023/02/04 09:38:21;;;;;;;6.00;2.90;;;;;;;-3.09;66.13;98803.03;105284;1260;61884;-24
2023/02/04 09:40:53;;;;;;;5.30;3.70;;;;;;;-3.00;66.08;98809.91;105639;1256;74557;-24
2023/02/04 09:43:25;;;;;;;25.80;10.90;;;;;;;-3.05;65.07;98810.23;105503;1262;75877;-24
2023/02/04 09:45:54;;;;;;;13.90;6.40;;;;;;;-3.13;65.45;98816.23;105108;1258;74163;-24
2023/02/04 09:48:23;;;;;;;6.10;3.10;;;;;;;-3.09;65.10;98819.00;105505;1256;61588;-24
2023/02/04 09:50:52;;;;;;;33.90;17.50;;;;;;;-3.00;64.78;98821.98;105482;1260;61581;-24
2023/02/04 09:53:22;;;;;;;63.50;43.60;;;;;;;-3.03;64.67;98822.08;105249;1256;75117;-24
2023/02/04 09:55:50;;;;;;;16.80;11.00;;;;;;;-2.93;64.89;98825.35;105596;1256;75539;-24
2023/02/04 09:58:20;;;;;;;47.70;33.40;;;;;;;-2.71;65.28;98822.98;105508;1260;73092;-24
2023/02/04 10:00:57;;;;;;;26.50;18.40;;;;;;;-2.60;64.11;98826.72;105275;1264;61106;-25
2023/02/04 10:03:25;;;;;;;62.20;30.80;;;;;;;-2.62;63.07;98829.67;105493;1256;61210;-24
2023/02/04 10:05:54;;;;;;;50.20;27.70;;;;;;;-2.52;62.17;98828.35;105584;1256;75127;-24
2023/02/04 10:08:32;;;;;;;52.40;31.30;;;;;;;-2.40;61.88;98829.50;105621;1257;75871;-25
2023/02/04 10:11:01;;;;;;;19.50;13.40;;;;;;;-2.22;61.42;98832.67;105671;1253;74096;-24
2023/02/04 10:13:32;;;;;;;10.80;6.70;;;;;;;-2.36;59.62;98832.94;105926;1254;61404;-24
2023/02/04 10:16:01;;;;;;;17.00;10.70;;;;;;;-2.02;59.95;98831.86;105552;1254;61845;-25
2023/02/04 10:18:31;;;;;;;7.80;4.80;;;;;;;-1.91;59.51;98832.49;105602;1253;75277;-25
2023/02/04 10:21:21;;;;;;;20.80;13.90;;;;;;;-1.56;59.70;98840.67;105676;1258;74473;-26
2023/02/04 10:23:51;;;;;;;17.80;12.40;;;;;;;-1.64;59.96;98845.05;105656;1253;74157;-25
2023/02/04 10:26:20;;;;;;;14.80;8.60;;;;;;;-1.64;59.70;98843.49;105291;1261;61141;-25
2023/02/04 10:28:50;;;;;;;17.70;12.30;;;;;;;-1.94;59.69;98845.17;105583;1258;62185;-24
2023/02/04 10:31:38;;;;;;;7.10;3.70;;;;;;;-1.97;59.45;98851.61;105772;1257;74718;-25
2023/02/04 10:34:11;;;;;;;21.40;14.10;;;;;;;-1.73;60.00;98853.67;105768;1258;75780;-25
2023/02/04 10:36:41;;;;;;;20.50;11.00;;;;;;;-1.95;56.66;98861.56;105687;1253;74138;-25
2023/02/04 10:39:23;;;;;;;19.30;13.40;;;;;;;-2.20;55.34;98862.86;105684;1253;61827;-25
2023/02/04 10:41:53;;;;;;;15.90;10.40;;;;;;;-2.31;56.12;98866.11;105720;1254;61178;-25
2023/02/04 10:44:32;;;;;;;16.30;9.80;;;;;;;-2.38;57.04;98867.01;105570;1258;74059;-25
2023/02/04 10:47:05;;;;;;;21.70;15.10;;;;;;;-2.59;57.63;98867.65;105679;1253;74854;-25
2023/02/04 10:49:35;;;;;;;22.20;11.80;;;;;;;-2.40;59.66;98880.50;105727;1253;73889;-24
2023/02/04 10:52:11;;;;;;;18.80;10.00;;;;;;;-2.37;59.89;98877.17;105642;1253;61065;-26
2023/02/04 10:54:39;;;;;;;72.60;43.80;;;;;;;-2.39;60.45;98884.39;105678;1260;61877;-25
2023/02/04 10:57:18;;;;;;;18.30;7.60;;;;;;;-2.40;59.82;98889.52;105873;1253;75284;-25
2023/02/04 10:59:50;;;;;;;49.70;19.60;;;;;;;-2.44;59.13;98897.47;105611;1256;75587;-24
2023/02/04 11:02:21;;;;;;;28.00;12.00;;;;;;;-2.40;59.37;98899.21;105703;1253;73235;-24
2023/02/04 11:04:50;;;;;;;37.20;14.30;;;;;;;-2.45;58.58;98904.63;105840;1253;61133;-25
2023/02/04 11:07:19;;;;;;;43.10;18.80;;;;;;;-2.50;59.66;98905.30;105586;1257;61651;-24
2023/02/04 11:09:48;;;;;;;37.40;17.80;;;;;;;-2.48;60.42;98912.38;105515;1253;75548;-25
2023/02/04 11:12:34;;;;;;;12.00;5.20;;;;;;;-2.55;59.81;98914.11;105857;1253;75801;-25
2023/02/04 11:15:50;;;;;;;4.20;2.60;;;;;;;-2.59;58.96;98914.23;105697;1253;73582;-25
2023/02/04 11:18:19;;;;;;;20.60;10.10;;;;;;;-2.67;59.73;98920.41;105710;1253;61300;-24
2023/02/04 11:20:48;;;;;;;19.00;9.50;;;;;;;-2.82;59.83;98921.02;105701;1258;61817;-24
2023/02/04 11:23:25;;;;;;;39.00;16.30;;;;;;;-2.86;59.80;98922.31;105676;1253;75353;-24
2023/02/04 11:26:16;;;;;;;27.70;14.90;;;;;;;-2.92;60.20;98928.60;105693;1259;75707;-24
2023/02/04 11:28:44;;;;;;;41.90;16.50;;;;;;;-2.89;61.54;98937.86;105716;1253;74423;-24
2023/02/04 11:31:24;;;;;;;39.00;16.90;;;;;;;-2.84;61.34;98936.70;105684;1252;61965;-24
2023/02/04 11:34:02;;;;;;;25.70;11.20;;;;;;;-2.85;59.88;98943.34;105615;1253;61095;-25
2023/02/04 11:36:31;;;;;;;54.80;19.50;;;;;;;-2.97;56.79;98940.79;105685;1253;75289;-25
2023/02/04 11:39:06;;;;;;;9.90;6.60;;;;;;;-2.97;56.37;98939.96;105685;1257;74998;-25
2023/02/04 11:41:34;;;;;;;114.60;62.80;;;;;;;-2.98;56.38;98941.83;105571;1253;73000;-25
2023/02/04 11:44:03;;;;;;;59.20;29.80;;;;;;;-2.91;57.08;98939.95;105518;1253;61880;-24
2023/02/04 11:46:32;;;;;;;96.00;44.40;;;;;;;-2.87;57.41;98942.73;105821;1256;61702;-25